sensor_id;sensor_type;location;lat;lon;timestamp;pressure;altitude;pressure_sealevel;temperature;humidity
20015;BME280;61787;42.022;23.078;2023-05-09T00:00:44;96852.44;;;16.33;100.00
20015;BME280;61787;42.022;23.078;2023-05-09T00:01:46;96854.00;;;16.34;100.00
20015;BME280;61787;42.022;23.078;2023-05-09T00:02:48;96850.88;;;16.32;100.00
20015;BME280;61787;42.022;23.078;2023-05-09T00:03:50;96857.84;;;16.33;100.00
20015;BME280;61787;42.022;23.078;2023-05-09T00:04:52;96853.22;;;16.34;100.00
20015;BME280;61787;42.022;23.078;2023-05-09T00:05:54;96860.22;;;16.38;100.00
20015;BME280;61787;42.022;23.078;2023-05-09T00:06:55;96855.63;;;16.42;100.00
20015;BME280;61787;42.022;23.078;2023-05-09T00:07:57;96852.13;;;16.42;100.00
20015;BME280;61787;42.022;23.078;2023-05-09T00:08:59;96850.19;;;16.39;100.00
20015;BME280;61787;42.022;23.078;2023-05-09T00:10:00;96854.00;;;16.34;100.00
20015;BME280;61787;42.022;23.078;2023-05-09T00:11:02;96854.66;;;16.24;100.00
20015;BME280;61787;42.022;23.078;2023-05-09T00:12:04;96849.47;;;16.12;100.00
20015;BME280;61787;42.022;23.078;2023-05-09T00:13:06;96846.75;;;16.12;100.00
20015;BME280;61787;42.022;23.078;2023-05-09T00:14:09;96848.41;;;16.20;100.00
20015;BME280;61787;42.022;23.078;2023-05-09T00:15:12;96851.53;;;16.22;100.00
20015;BME280;61787;42.022;23.078;2023-05-09T00:16:14;96853.88;;;16.24;100.00
20015;BME280;61787;42.022;23.078;2023-05-09T00:17:17;96851.25;;;16.31;100.00
20015;BME280;61787;42.022;23.078;2023-05-09T00:18:19;96849.00;;;16.36;100.00
20015;BME280;61787;42.022;23.078;2023-05-09T00:19:22;96854.84;;;16.42;100.00
20015;BME280;61787;42.022;23.078;2023-05-09T00:20:23;96849.50;;;16.45;100.00
20015;BME280;61787;42.022;23.078;2023-05-09T00:21:25;96844.09;;;16.49;100.00
20015;BME280;61787;42.022;23.078;2023-05-09T00:22:28;96845.34;;;16.55;100.00
20015;BME280;61787;42.022;23.078;2023-05-09T00:23:30;96844.91;;;16.53;100.00
20015;BME280;61787;42.022;23.078;2023-05-09T00:24:31;96849.56;;;16.52;100.00
20015;BME280;61787;42.022;23.078;2023-05-09T00:25:33;96845.22;;;16.44;100.00
20015;BME280;61787;42.022;23.078;2023-05-09T00:26:34;96847.94;;;16.44;100.00
20015;BME280;61787;42.022;23.078;2023-05-09T00:27:36;96850.63;;;16.44;99.58
20015;BME280;61787;42.022;23.078;2023-05-09T00:28:37;96844.78;;;16.42;98.80
20015;BME280;61787;42.022;23.078;2023-05-09T00:29:39;96848.34;;;16.46;98.54
20015;BME280;61787;42.022;23.078;2023-05-09T00:30:41;96849.81;;;16.40;99.09
20015;BME280;61787;42.022;23.078;2023-05-09T00:31:42;96849.38;;;16.35;99.45
20015;BME280;61787;42.022;23.078;2023-05-09T00:32:44;96852.03;;;16.31;99.97
20015;BME280;61787;42.022;23.078;2023-05-09T00:33:45;96845.53;;;16.36;99.92
20015;BME280;61787;42.022;23.078;2023-05-09T00:34:47;96847.13;;;16.40;99.70
20015;BME280;61787;42.022;23.078;2023-05-09T00:35:48;96847.13;;;16.44;99.33
20015;BME280;61787;42.022;23.078;2023-05-09T00:36:50;96844.78;;;16.42;99.59
20015;BME280;61787;42.022;23.078;2023-05-09T00:37:52;96849.06;;;16.43;99.16
20015;BME280;61787;42.022;23.078;2023-05-09T00:38:53;96849.50;;;16.45;99.13
20015;BME280;61787;42.022;23.078;2023-05-09T00:39:55;96847.59;;;16.49;98.28
20015;BME280;61787;42.022;23.078;2023-05-09T00:40:56;96851.91;;;16.54;97.92
20015;BME280;61787;42.022;23.078;2023-05-09T00:41:58;96844.97;;;16.56;98.31
20015;BME280;61787;42.022;23.078;2023-05-09T00:43:00;96849.66;;;16.59;98.49
20015;BME280;61787;42.022;23.078;2023-05-09T00:44:01;96854.72;;;16.61;98.33
20015;BME280;61787;42.022;23.078;2023-05-09T00:45:03;96848.09;;;16.58;99.21
20015;BME280;61787;42.022;23.078;2023-05-09T00:46:05;96850.09;;;16.61;99.02
20015;BME280;61787;42.022;23.078;2023-05-09T00:47:07;96843.50;;;16.62;98.72
20015;BME280;61787;42.022;23.078;2023-05-09T00:48:08;96847.00;;;16.63;98.17
20015;BME280;61787;42.022;23.078;2023-05-09T00:49:10;96852.41;;;16.63;97.59
20015;BME280;61787;42.022;23.078;2023-05-09T00:50:12;96846.19;;;16.59;96.23
20015;BME280;61787;42.022;23.078;2023-05-09T00:51:15;96855.75;;;16.53;95.78
20015;BME280;61787;42.022;23.078;2023-05-09T00:52:17;96850.31;;;16.49;95.20
20015;BME280;61787;42.022;23.078;2023-05-09T00:53:24;96851.13;;;16.53;95.31
20015;BME280;61787;42.022;23.078;2023-05-09T00:54:25;96850.63;;;16.44;95.78
20015;BME280;61787;42.022;23.078;2023-05-09T00:55:27;96855.28;;;16.47;96.88
20015;BME280;61787;42.022;23.078;2023-05-09T00:56:29;96856.88;;;16.52;97.25
20015;BME280;61787;42.022;23.078;2023-05-09T00:57:31;96848.81;;;16.55;97.41
20015;BME280;61787;42.022;23.078;2023-05-09T00:58:33;96853.09;;;16.56;97.78
20015;BME280;61787;42.022;23.078;2023-05-09T00:59:35;96852.25;;;16.52;97.42
20015;BME280;61787;42.022;23.078;2023-05-09T01:00:37;96854.97;;;16.52;97.85
20015;BME280;61787;42.022;23.078;2023-05-09T01:01:38;96848.75;;;16.48;97.80
20015;BME280;61787;42.022;23.078;2023-05-09T01:02:42;96855.72;;;16.49;98.44
20015;BME280;61787;42.022;23.078;2023-05-09T01:03:45;96845.69;;;16.53;98.54
20015;BME280;61787;42.022;23.078;2023-05-09T01:04:47;96842.63;;;16.55;98.46
20015;BME280;61787;42.022;23.078;2023-05-09T01:08:41;96850.53;;;16.67;98.57
20015;BME280;61787;42.022;23.078;2023-05-09T01:10:01;96851.38;;;16.75;98.07
20015;BME280;61787;42.022;23.078;2023-05-09T01:11:10;96850.63;;;16.78;98.01
20015;BME280;61787;42.022;23.078;2023-05-09T01:13:35;96853.72;;;16.76;98.22
20015;BME280;61787;42.022;23.078;2023-05-09T01:14:55;96854.41;;;16.70;98.77
20015;BME280;61787;42.022;23.078;2023-05-09T01:17:47;96852.81;;;16.65;99.88
20015;BME280;61787;42.022;23.078;2023-05-09T01:18:53;96854.38;;;16.66;100.00
20015;BME280;61787;42.022;23.078;2023-05-09T01:20:10;96864.50;;;16.73;100.00
20015;BME280;61787;42.022;23.078;2023-05-09T01:21:18;96861.44;;;16.74;100.00
20015;BME280;61787;42.022;23.078;2023-05-09T01:22:25;96863.69;;;16.69;100.00
20015;BME280;61787;42.022;23.078;2023-05-09T01:26:03;96857.94;;;15.81;100.00
20015;BME280;61787;42.022;23.078;2023-05-09T01:27:52;96865.44;;;15.64;100.00
20015;BME280;61787;42.022;23.078;2023-05-09T01:29:24;96863.97;;;15.70;100.00
20015;BME280;61787;42.022;23.078;2023-05-09T01:30:29;96864.69;;;15.67;100.00
20015;BME280;61787;42.022;23.078;2023-05-09T01:31:32;96863.13;;;15.66;100.00
20015;BME280;61787;42.022;23.078;2023-05-09T01:32:36;96862.97;;;15.56;100.00
20015;BME280;61787;42.022;23.078;2023-05-09T01:33:41;96867.09;;;15.50;100.00
20015;BME280;61787;42.022;23.078;2023-05-09T01:34:48;96863.09;;;15.40;100.00
20015;BME280;61787;42.022;23.078;2023-05-09T01:35:57;96858.31;;;15.30;100.00
20015;BME280;61787;42.022;23.078;2023-05-09T01:37:00;96866.22;;;15.19;100.00
20015;BME280;61787;42.022;23.078;2023-05-09T01:38:09;96863.13;;;15.17;100.00
20015;BME280;61787;42.022;23.078;2023-05-09T01:39:12;96864.84;;;15.29;100.00
20015;BME280;61787;42.022;23.078;2023-05-09T01:40:16;96859.75;;;15.24;100.00
20015;BME280;61787;42.022;23.078;2023-05-09T01:41:20;96867.50;;;15.25;100.00
20015;BME280;61787;42.022;23.078;2023-05-09T01:42:23;96865.44;;;15.19;100.00
20015;BME280;61787;42.022;23.078;2023-05-09T01:43:27;96865.34;;;15.12;100.00
20015;BME280;61787;42.022;23.078;2023-05-09T01:44:35;96863.03;;;15.14;100.00
20015;BME280;61787;42.022;23.078;2023-05-09T01:45:38;96867.22;;;15.08;100.00
20015;BME280;61787;42.022;23.078;2023-05-09T01:46:42;96870.63;;;15.05;100.00
20015;BME280;61787;42.022;23.078;2023-05-09T01:47:46;96865.94;;;15.02;100.00
20015;BME280;61787;42.022;23.078;2023-05-09T01:48:49;96873.81;;;14.87;100.00
20015;BME280;61787;42.022;23.078;2023-05-09T01:49:54;96871.81;;;14.84;100.00
20015;BME280;61787;42.022;23.078;2023-05-09T01:50:57;96868.81;;;14.89;100.00
20015;BME280;61787;42.022;23.078;2023-05-09T01:52:06;96870.44;;;14.94;100.00
20015;BME280;61787;42.022;23.078;2023-05-09T01:53:09;96864.19;;;14.90;100.00
20015;BME280;61787;42.022;23.078;2023-05-09T01:54:11;96862.88;;;14.80;100.00
20015;BME280;61787;42.022;23.078;2023-05-09T01:55:14;96872.44;;;14.78;100.00
20015;BME280;61787;42.022;23.078;2023-05-09T01:56:17;96867.84;;;14.78;100.00
20015;BME280;61787;42.022;23.078;2023-05-09T01:57:20;96868.63;;;14.79;100.00
20015;BME280;61787;42.022;23.078;2023-05-09T01:58:24;96864.28;;;14.74;100.00
20015;BME280;61787;42.022;23.078;2023-05-09T01:59:27;96871.59;;;14.74;100.00
20015;BME280;61787;42.022;23.078;2023-05-09T02:00:31;96871.66;;;14.77;100.00
20015;BME280;61787;42.022;23.078;2023-05-09T02:01:33;96864.72;;;14.76;100.00
20015;BME280;61787;42.022;23.078;2023-05-09T02:02:36;96861.16;;;14.72;100.00
20015;BME280;61787;42.022;23.078;2023-05-09T02:03:39;96869.94;;;14.66;100.00
20015;BME280;61787;42.022;23.078;2023-05-09T02:04:42;96870.72;;;14.66;100.00
20015;BME280;61787;42.022;23.078;2023-05-09T02:05:44;96877.84;;;14.78;100.00
20015;BME280;61787;42.022;23.078;2023-05-09T02:06:49;96876.38;;;14.80;100.00
20015;BME280;61787;42.022;23.078;2023-05-09T02:07:52;96875.94;;;14.78;100.00
20015;BME280;61787;42.022;23.078;2023-05-09T02:08:55;96880.19;;;14.79;100.00
20015;BME280;61787;42.022;23.078;2023-05-09T02:09:59;96887.47;;;14.98;100.00
20015;BME280;61787;42.022;23.078;2023-05-09T02:11:01;96882.69;;;15.11;100.00
20015;BME280;61787;42.022;23.078;2023-05-09T02:12:02;96876.19;;;15.15;100.00
20015;BME280;61787;42.022;23.078;2023-05-09T02:13:07;96882.56;;;15.26;100.00
20015;BME280;61787;42.022;23.078;2023-05-09T02:14:08;96873.44;;;15.34;100.00
20015;BME280;61787;42.022;23.078;2023-05-09T02:15:10;96868.81;;;15.35;100.00
20015;BME280;61787;42.022;23.078;2023-05-09T02:16:12;96875.03;;;15.39;100.00
20015;BME280;61787;42.022;23.078;2023-05-09T02:17:14;96873.59;;;15.45;100.00
20015;BME280;61787;42.022;23.078;2023-05-09T02:18:17;96881.31;;;15.43;100.00
20015;BME280;61787;42.022;23.078;2023-05-09T02:19:18;96877.44;;;15.44;100.00
20015;BME280;61787;42.022;23.078;2023-05-09T02:20:20;96886.00;;;15.50;100.00
20015;BME280;61787;42.022;23.078;2023-05-09T02:21:22;96870.09;;;15.45;100.00
20015;BME280;61787;42.022;23.078;2023-05-09T02:22:23;96876.72;;;15.47;100.00
20015;BME280;61787;42.022;23.078;2023-05-09T02:23:25;96872.19;;;15.51;100.00
20015;BME280;61787;42.022;23.078;2023-05-09T02:24:27;96878.50;;;15.59;99.88
20015;BME280;61787;42.022;23.078;2023-05-09T02:25:30;96874.56;;;15.56;98.58
20015;BME280;61787;42.022;23.078;2023-05-09T02:26:33;96878.41;;;15.55;97.77
20015;BME280;61787;42.022;23.078;2023-05-09T02:27:37;96878.41;;;15.55;96.66
20015;BME280;61787;42.022;23.078;2023-05-09T02:28:40;96872.59;;;15.53;96.11
20015;BME280;61787;42.022;23.078;2023-05-09T02:29:47;96873.38;;;15.54;95.10
20015;BME280;61787;42.022;23.078;2023-05-09T02:30:51;96877.59;;;15.51;95.34
20015;BME280;61787;42.022;23.078;2023-05-09T02:31:53;96871.47;;;15.54;95.54
20015;BME280;61787;42.022;23.078;2023-05-09T02:33:00;96876.13;;;15.57;96.35
20015;BME280;61787;42.022;23.078;2023-05-09T02:34:03;96874.25;;;15.61;95.86
20015;BME280;61787;42.022;23.078;2023-05-09T02:35:07;96871.47;;;15.54;96.16
20015;BME280;61787;42.022;23.078;2023-05-09T02:36:10;96872.72;;;15.38;96.26
20015;BME280;61787;42.022;23.078;2023-05-09T02:37:12;96877.94;;;15.27;97.39
20015;BME280;61787;42.022;23.078;2023-05-09T02:38:15;96871.59;;;15.16;98.36
20015;BME280;61787;42.022;23.078;2023-05-09T02:39:17;96870.00;;;15.15;98.29
20015;BME280;61787;42.022;23.078;2023-05-09T02:40:19;96865.34;;;15.12;98.89
20015;BME280;61787;42.022;23.078;2023-05-09T02:41:21;96873.00;;;15.10;99.41
20015;BME280;61787;42.022;23.078;2023-05-09T02:42:25;96874.59;;;15.11;100.00
20015;BME280;61787;42.022;23.078;2023-05-09T02:43:26;96877.81;;;15.20;100.00
20015;BME280;61787;42.022;23.078;2023-05-09T02:44:28;96870.94;;;15.22;99.07
20015;BME280;61787;42.022;23.078;2023-05-09T02:45:30;96870.09;;;15.18;98.87
20015;BME280;61787;42.022;23.078;2023-05-09T02:46:32;96874.59;;;15.11;98.48
20015;BME280;61787;42.022;23.078;2023-05-09T02:47:33;96873.97;;;14.98;98.92
20015;BME280;61787;42.022;23.078;2023-05-09T02:48:35;96873.91;;;14.94;99.59
20015;BME280;61787;42.022;23.078;2023-05-09T02:49:37;96872.06;;;14.99;99.24
20015;BME280;61787;42.022;23.078;2023-05-09T02:50:39;96877.59;;;15.06;98.90
20015;BME280;61787;42.022;23.078;2023-05-09T02:51:43;96869.06;;;15.04;98.26
20015;BME280;61787;42.022;23.078;2023-05-09T02:52:45;96877.59;;;15.06;98.26
20015;BME280;61787;42.022;23.078;2023-05-09T02:53:46;96873.75;;;15.07;98.51
20015;BME280;61787;42.022;23.078;2023-05-09T02:54:48;96876.44;;;15.07;98.33
20015;BME280;61787;42.022;23.078;2023-05-09T02:55:49;96875.63;;;15.03;98.27
20015;BME280;61787;42.022;23.078;2023-05-09T02:56:51;96878.31;;;15.03;98.35
20015;BME280;61787;42.022;23.078;2023-05-09T02:57:53;96871.34;;;15.02;97.84
20015;BME280;61787;42.022;23.078;2023-05-09T02:59:12;96873.50;;;14.92;98.01
20015;BME280;61787;42.022;23.078;2023-05-09T03:00:14;96878.03;;;14.88;98.92
20015;BME280;61787;42.022;23.078;2023-05-09T03:01:18;96879.97;;;14.88;98.89
20015;BME280;61787;42.022;23.078;2023-05-09T03:02:20;96876.41;;;14.84;99.03
20015;BME280;61787;42.022;23.078;2023-05-09T03:03:21;96874.22;;;14.89;99.20
20015;BME280;61787;42.022;23.078;2023-05-09T03:04:23;96883.44;;;14.88;99.45
20015;BME280;61787;42.022;23.078;2023-05-09T03:05:28;96874.94;;;14.86;99.91
20015;BME280;61787;42.022;23.078;2023-05-09T03:06:29;96877.69;;;14.90;99.77
20015;BME280;61787;42.022;23.078;2023-05-09T03:07:31;96873.06;;;14.90;99.67
20015;BME280;61787;42.022;23.078;2023-05-09T03:08:33;96877.25;;;14.88;99.87
20015;BME280;61787;42.022;23.078;2023-05-09T03:09:34;96878.78;;;14.85;100.00
20015;BME280;61787;42.022;23.078;2023-05-09T03:10:36;96885.66;;;14.83;100.00
20015;BME280;61787;42.022;23.078;2023-05-09T03:11:37;96875.53;;;14.76;100.00
20015;BME280;61787;42.022;23.078;2023-05-09T03:12:39;96883.91;;;14.71;100.00
20015;BME280;61787;42.022;23.078;2023-05-09T03:13:44;96882.41;;;14.74;100.00
20015;BME280;61787;42.022;23.078;2023-05-09T03:14:46;96878.53;;;14.71;100.00
20015;BME280;61787;42.022;23.078;2023-05-09T03:15:47;96892.38;;;14.70;100.00
20015;BME280;61787;42.022;23.078;2023-05-09T03:16:49;96885.34;;;14.65;100.00
20015;BME280;61787;42.022;23.078;2023-05-09T03:17:50;96890.59;;;14.58;100.00
20015;BME280;61787;42.022;23.078;2023-05-09T03:18:52;96889.75;;;14.54;100.00
20015;BME280;61787;42.022;23.078;2023-05-09T03:19:54;96889.25;;;14.48;100.00
20015;BME280;61787;42.022;23.078;2023-05-09T03:20:55;96891.03;;;14.41;100.00
20015;BME280;61787;42.022;23.078;2023-05-09T03:21:57;96899.28;;;14.32;100.00
20015;BME280;61787;42.022;23.078;2023-05-09T03:22:58;96901.88;;;14.25;100.00
20015;BME280;61787;42.022;23.078;2023-05-09T03:24:00;96902.44;;;14.15;100.00
20015;BME280;61787;42.022;23.078;2023-05-09T03:25:02;96897.22;;;14.06;100.00
20015;BME280;61787;42.022;23.078;2023-05-09T03:26:04;96901.75;;;14.02;100.00
20015;BME280;61787;42.022;23.078;2023-05-09T03:27:06;96900.06;;;13.94;100.00
20015;BME280;61787;42.022;23.078;2023-05-09T03:28:07;96898.91;;;13.95;100.00
20015;BME280;61787;42.022;23.078;2023-05-09T03:29:09;96907.88;;;13.99;100.00
20015;BME280;61787;42.022;23.078;2023-05-09T03:30:11;96905.31;;;14.06;100.00
20015;BME280;61787;42.022;23.078;2023-05-09T03:31:14;96908.72;;;14.03;100.00
20015;BME280;61787;42.022;23.078;2023-05-09T03:32:15;96903.50;;;14.11;100.00
20015;BME280;61787;42.022;23.078;2023-05-09T03:33:17;96899.63;;;14.12;100.00
20015;BME280;61787;42.022;23.078;2023-05-09T03:34:18;96908.94;;;14.14;100.00
20015;BME280;61787;42.022;23.078;2023-05-09T03:35:20;96911.66;;;14.14;99.82
20015;BME280;61787;42.022;23.078;2023-05-09T03:36:22;96902.78;;;14.14;100.00
20015;BME280;61787;42.022;23.078;2023-05-09T03:37:23;96915.13;;;14.15;100.00
20015;BME280;61787;42.022;23.078;2023-05-09T03:38:27;96907.38;;;14.13;100.00
20015;BME280;61787;42.022;23.078;2023-05-09T03:39:29;96909.63;;;14.11;100.00
20015;BME280;61787;42.022;23.078;2023-05-09T03:40:30;96903.56;;;14.14;100.00
20015;BME280;61787;42.022;23.078;2023-05-09T03:41:32;96905.47;;;14.14;100.00
20015;BME280;61787;42.022;23.078;2023-05-09T03:42:36;96907.53;;;14.20;99.68
20015;BME280;61787;42.022;23.078;2023-05-09T03:43:38;96901.38;;;14.20;98.60
20015;BME280;61787;42.022;23.078;2023-05-09T03:44:39;96910.16;;;14.17;99.79
20015;BME280;61787;42.022;23.078;2023-05-09T03:45:41;96909.34;;;14.16;99.76
20015;BME280;61787;42.022;23.078;2023-05-09T03:46:42;96914.69;;;14.13;99.97
20015;BME280;61787;42.022;23.078;2023-05-09T03:47:44;96913.50;;;14.10;100.00
20015;BME280;61787;42.022;23.078;2023-05-09T03:48:46;96915.75;;;14.08;100.00
20015;BME280;61787;42.022;23.078;2023-05-09T03:49:48;96913.50;;;14.10;100.00
20015;BME280;61787;42.022;23.078;2023-05-09T03:50:49;96914.97;;;14.07;100.00
20015;BME280;61787;42.022;23.078;2023-05-09T03:51:51;96911.13;;;14.08;100.00
20015;BME280;61787;42.022;23.078;2023-05-09T03:52:52;96919.22;;;14.08;100.00
20015;BME280;61787;42.022;23.078;2023-05-09T03:53:55;96922.00;;;14.12;100.00
20015;BME280;61787;42.022;23.078;2023-05-09T03:54:57;96910.41;;;14.12;100.00
20015;BME280;61787;42.022;23.078;2023-05-09T03:55:58;96913.78;;;14.05;100.00
20015;BME280;61787;42.022;23.078;2023-05-09T03:57:00;96921.84;;;14.05;100.00
20015;BME280;61787;42.022;23.078;2023-05-09T03:58:02;96916.38;;;14.01;100.00
20015;BME280;61787;42.022;23.078;2023-05-09T03:59:04;96920.19;;;14.00;100.00
20015;BME280;61787;42.022;23.078;2023-05-09T04:00:06;96914.78;;;14.00;100.00
20015;BME280;61787;42.022;23.078;2023-05-09T04:01:08;96917.88;;;13.99;100.00
20015;BME280;61787;42.022;23.078;2023-05-09T04:02:10;96925.44;;;13.93;99.26
20015;BME280;61787;42.022;23.078;2023-05-09T04:03:12;96921.69;;;13.98;100.00
20015;BME280;61787;42.022;23.078;2023-05-09T04:04:13;96921.69;;;13.98;100.00
20015;BME280;61787;42.022;23.078;2023-05-09T04:05:15;96923.25;;;13.99;100.00
20015;BME280;61787;42.022;23.078;2023-05-09T04:06:18;96920.28;;;14.04;100.00
20015;BME280;61787;42.022;23.078;2023-05-09T04:07:19;96929.16;;;14.04;99.56
20015;BME280;61787;42.022;23.078;2023-05-09T04:08:22;96926.81;;;14.03;99.69
20015;BME280;61787;42.022;23.078;2023-05-09T04:09:23;96928.00;;;14.05;100.00
20015;BME280;61787;42.022;23.078;2023-05-09T04:10:25;96930.00;;;14.08;100.00
20015;BME280;61787;42.022;23.078;2023-05-09T04:11:27;96928.94;;;14.13;100.00
20015;BME280;61787;42.022;23.078;2023-05-09T04:12:28;96926.19;;;14.09;100.00
20015;BME280;61787;42.022;23.078;2023-05-09T04:13:30;96926.25;;;14.13;100.00
20015;BME280;61787;42.022;23.078;2023-05-09T04:14:33;96918.94;;;14.14;99.79
20015;BME280;61787;42.022;23.078;2023-05-09T04:15:34;96922.09;;;14.16;100.00
20015;BME280;61787;42.022;23.078;2023-05-09T04:16:36;96925.47;;;14.13;100.00
20015;BME280;61787;42.022;23.078;2023-05-09T04:17:38;96918.09;;;14.09;100.00
20015;BME280;61787;42.022;23.078;2023-05-09T04:18:39;96925.06;;;14.11;100.00
20015;BME280;61787;42.022;23.078;2023-05-09T04:19:42;96922.78;;;14.13;100.00
20015;BME280;61787;42.022;23.078;2023-05-09T04:20:44;96923.63;;;14.17;100.00
20015;BME280;61787;42.022;23.078;2023-05-09T04:21:45;96930.25;;;14.19;100.00
20015;BME280;61787;42.022;23.078;2023-05-09T04:22:47;96924.50;;;14.21;100.00
20015;BME280;61787;42.022;23.078;2023-05-09T04:23:48;96931.38;;;14.18;99.46
20015;BME280;61787;42.022;23.078;2023-05-09T04:24:50;96928.34;;;14.20;99.53
20015;BME280;61787;42.022;23.078;2023-05-09T04:25:52;96932.16;;;14.19;98.73
20015;BME280;61787;42.022;23.078;2023-05-09T04:26:54;96932.16;;;14.19;99.70
20015;BME280;61787;42.022;23.078;2023-05-09T04:27:56;96932.59;;;14.21;100.00
20015;BME280;61787;42.022;23.078;2023-05-09T04:28:58;96936.16;;;14.25;99.61
20015;BME280;61787;42.022;23.078;2023-05-09T04:29:59;96933.88;;;14.27;99.25
20015;BME280;61787;42.022;23.078;2023-05-09T04:31:01;96931.59;;;14.29;100.00
20015;BME280;61787;42.022;23.078;2023-05-09T04:32:03;96925.50;;;14.32;100.00
20015;BME280;61787;42.022;23.078;2023-05-09T04:33:05;96932.38;;;14.29;99.60
20015;BME280;61787;42.022;23.078;2023-05-09T04:34:07;96937.00;;;14.29;100.00
20015;BME280;61787;42.022;23.078;2023-05-09T04:35:08;96930.03;;;14.28;100.00
20015;BME280;61787;42.022;23.078;2023-05-09T04:36:10;96930.03;;;14.28;98.08
20015;BME280;61787;42.022;23.078;2023-05-09T04:37:12;96928.47;;;14.27;98.53
20015;BME280;61787;42.022;23.078;2023-05-09T04:38:14;96934.56;;;14.24;98.49
20015;BME280;61787;42.022;23.078;2023-05-09T04:39:17;96929.91;;;14.21;99.52
20015;BME280;61787;42.022;23.078;2023-05-09T04:40:19;96936.84;;;14.22;100.00
20015;BME280;61787;42.022;23.078;2023-05-09T04:41:21;96939.63;;;14.25;100.00
20015;BME280;61787;42.022;23.078;2023-05-09T04:42:23;96936.16;;;14.25;100.00
20015;BME280;61787;42.022;23.078;2023-05-09T04:43:24;96936.16;;;14.25;98.48
20015;BME280;61787;42.022;23.078;2023-05-09T04:44:28;96938.13;;;14.28;98.57
20015;BME280;61787;42.022;23.078;2023-05-09T04:45:29;96935.44;;;14.28;96.84
20015;BME280;61787;42.022;23.078;2023-05-09T04:46:32;96937.78;;;14.29;97.52
20015;BME280;61787;42.022;23.078;2023-05-09T04:47:33;96941.69;;;14.32;98.50
20015;BME280;61787;42.022;23.078;2023-05-09T04:48:35;96935.16;;;14.33;98.33
20015;BME280;61787;42.022;23.078;2023-05-09T04:49:36;96933.16;;;14.30;97.18
20015;BME280;61787;42.022;23.078;2023-05-09T04:50:39;96935.88;;;14.30;97.51
20015;BME280;61787;42.022;23.078;2023-05-09T04:51:41;96936.94;;;14.25;97.50
20015;BME280;61787;42.022;23.078;2023-05-09T04:52:43;96936.16;;;14.25;98.55
20015;BME280;61787;42.022;23.078;2023-05-09T04:53:44;96934.66;;;14.27;98.59
20015;BME280;61787;42.022;23.078;2023-05-09T04:54:46;96930.75;;;14.25;100.00
20015;BME280;61787;42.022;23.078;2023-05-09T04:55:48;96932.59;;;14.21;100.00
20015;BME280;61787;42.022;23.078;2023-05-09T04:56:49;96937.56;;;14.19;99.90
20015;BME280;61787;42.022;23.078;2023-05-09T04:57:51;96939.03;;;14.16;98.95
20015;BME280;61787;42.022;23.078;2023-05-09T04:58:52;96930.59;;;14.18;99.75
20015;BME280;61787;42.022;23.078;2023-05-09T04:59:54;96934.50;;;14.20;99.78
20015;BME280;61787;42.022;23.078;2023-05-09T05:00:55;96934.56;;;14.24;100.00
20015;BME280;61787;42.022;23.078;2023-05-09T05:01:57;96929.91;;;14.21;100.00
20015;BME280;61787;42.022;23.078;2023-05-09T05:02:58;96932.59;;;14.21;100.00
20015;BME280;61787;42.022;23.078;2023-05-09T05:04:00;96934.56;;;14.24;100.00
20015;BME280;61787;42.022;23.078;2023-05-09T05:05:02;96933.06;;;14.26;99.85
20015;BME280;61787;42.022;23.078;2023-05-09T05:06:23;96930.03;;;14.28;98.54
20015;BME280;61787;42.022;23.078;2023-05-09T05:07:25;96928.47;;;14.27;100.00
20015;BME280;61787;42.022;23.078;2023-05-09T05:08:27;96926.94;;;14.26;99.18
20015;BME280;61787;42.022;23.078;2023-05-09T05:09:28;96923.34;;;14.22;98.58
20015;BME280;61787;42.022;23.078;2023-05-09T05:10:30;96926.50;;;14.24;97.72
20015;BME280;61787;42.022;23.078;2023-05-09T05:11:31;96926.13;;;14.25;97.47
20015;BME280;61787;42.022;23.078;2023-05-09T05:12:33;96921.94;;;14.28;97.78
20015;BME280;61787;42.022;23.078;2023-05-09T05:13:34;96920.75;;;14.25;97.47
20015;BME280;61787;42.022;23.078;2023-05-09T05:14:36;96917.22;;;14.05;98.89
20015;BME280;61787;42.022;23.078;2023-05-09T05:15:38;96917.75;;;13.95;99.87
20015;BME280;61787;42.022;23.078;2023-05-09T05:16:39;96923.06;;;14.07;100.00
20015;BME280;61787;42.022;23.078;2023-05-09T05:17:41;96918.88;;;14.10;100.00
20015;BME280;61787;42.022;23.078;2023-05-09T05:18:43;96913.56;;;14.14;100.00
20015;BME280;61787;42.022;23.078;2023-05-09T05:19:44;96915.97;;;14.19;100.00
20015;BME280;61787;42.022;23.078;2023-05-09T05:20:46;96917.53;;;14.20;99.63
20015;BME280;61787;42.022;23.078;2023-05-09T05:21:48;96928.34;;;14.20;97.64
20015;BME280;61787;42.022;23.078;2023-05-09T05:22:49;96923.44;;;14.25;95.05
20015;BME280;61787;42.022;23.078;2023-05-09T05:23:51;96925.75;;;14.27;96.34
20015;BME280;61787;42.022;23.078;2023-05-09T05:24:52;96929.34;;;14.31;96.54
20015;BME280;61787;42.022;23.078;2023-05-09T05:25:54;96929.50;;;14.38;97.12
20015;BME280;61787;42.022;23.078;2023-05-09T05:26:56;96927.59;;;14.38;98.00
20015;BME280;61787;42.022;23.078;2023-05-09T05:27:57;96922.97;;;14.39;97.75
20015;BME280;61787;42.022;23.078;2023-05-09T05:28:59;96926.88;;;14.41;98.49
20015;BME280;61787;42.022;23.078;2023-05-09T05:30:01;96924.09;;;14.38;97.29
20015;BME280;61787;42.022;23.078;2023-05-09T05:31:02;96924.97;;;14.42;98.09
20015;BME280;61787;42.022;23.078;2023-05-09T05:32:04;96929.66;;;14.45;98.16
20015;BME280;61787;42.022;23.078;2023-05-09T05:33:06;96932.41;;;14.48;98.89
20015;BME280;61787;42.022;23.078;2023-05-09T05:34:08;96933.56;;;14.47;98.11
20015;BME280;61787;42.022;23.078;2023-05-09T05:35:09;96934.78;;;14.50;98.17